Time;durP1;ratioP1;P1;durP2;ratioP2;P2;SDS_P1;SDS_P2;PMS_P1;PMS_P2;Temp;Humidity;BMP_temperature;BMP_pressure;BME280_temperature;BME280_humidity;BME280_pressure;Samples;Min_cycle;Max_cycle;Signal;HPM_P1;HPM_P2
2024/01/04 00:01:50;;;;;;;4.13;1.63;;;9.50;99.90;;;;;;5056817;28;20033;-61
2024/01/04 00:04:16;;;;;;;6.55;2.08;;;9.40;99.90;;;;;;5054853;28;20043;-60
2024/01/04 00:06:44;;;;;;;7.25;1.75;;;9.40;99.90;;;;;;5023056;28;20039;-61
2024/01/04 00:09:11;;;;;;;8.00;1.75;;;9.50;99.90;;;;;;5039524;28;20029;-60
2024/01/04 00:11:37;;;;;;;4.30;1.40;;;9.40;99.90;;;;;;5056643;28;20036;-60
2024/01/04 00:14:05;;;;;;;5.80;1.73;;;9.40;99.90;;;;;;5022869;28;20025;-60
2024/01/04 00:16:34;;;;;;;4.88;1.75;;;9.40;99.90;;;;;;5055793;28;20067;-60
2024/01/04 00:19:00;;;;;;;5.97;2.22;;;9.40;99.90;;;;;;5056460;28;20033;-60
2024/01/04 00:21:26;;;;;;;5.80;2.42;;;9.40;99.90;;;;;;5056567;28;20040;-60
2024/01/04 00:23:52;;;;;;;5.28;2.50;;;9.50;99.90;;;;;;5056427;28;20037;-60
2024/01/04 00:26:17;;;;;;;7.30;2.50;;;9.50;99.90;;;;;;5055869;28;20033;-61
2024/01/04 00:28:43;;;;;;;5.25;2.20;;;9.60;99.90;;;;;;5055621;28;20112;-62
2024/01/04 00:31:09;;;;;;;11.60;2.50;;;9.70;99.90;;;;;;5055601;28;20048;-60
2024/01/04 00:33:35;;;;;;;5.90;2.60;;;9.70;99.90;;;;;;5022643;28;20305;-60
2024/01/04 00:36:01;;;;;;;7.65;2.95;;;9.70;99.90;;;;;;5056366;28;20047;-60
2024/01/04 00:38:27;;;;;;;10.77;2.58;;;9.80;99.90;;;;;;5056290;28;20056;-61
2024/01/04 00:40:52;;;;;;;14.65;2.75;;;9.80;99.90;;;;;;5055636;28;20033;-61
2024/01/04 00:43:18;;;;;;;6.60;2.38;;;9.80;99.90;;;;;;5056244;28;20037;-60
2024/01/04 00:45:44;;;;;;;9.27;2.40;;;9.70;99.90;;;;;;5055766;28;20427;-60
2024/01/04 00:48:10;;;;;;;11.50;2.90;;;9.70;99.90;;;;;;5056147;28;20032;-62
2024/01/04 00:50:36;;;;;;;12.95;2.53;;;9.60;99.90;;;;;;5056290;28;20053;-62
2024/01/04 00:53:02;;;;;;;7.45;2.20;;;9.60;99.90;;;;;;5056276;28;20057;-61
2024/01/04 00:55:28;;;;;;;8.90;2.25;;;9.70;99.90;;;;;;5055558;28;20037;-61
2024/01/04 00:57:54;;;;;;;7.93;2.00;;;9.60;99.90;;;;;;5055307;28;20100;-62
2024/01/04 01:00:20;;;;;;;7.18;2.50;;;9.60;99.90;;;;;;5038994;28;20095;-63
2024/01/04 01:02:46;;;;;;;6.30;2.10;;;9.70;99.90;;;;;;5056021;28;20041;-61
2024/01/04 01:05:11;;;;;;;5.38;2.08;;;9.60;99.90;;;;;;5056129;28;20434;-61
2024/01/04 01:07:37;;;;;;;7.38;2.15;;;9.70;99.90;;;;;;5056114;28;20355;-60
2024/01/04 01:10:03;;;;;;;8.07;2.10;;;9.70;99.90;;;;;;5056259;28;20032;-61
2024/01/04 01:12:29;;;;;;;6.55;2.17;;;9.70;99.90;;;;;;5022439;28;20132;-60
2024/01/04 01:14:55;;;;;;;9.07;2.85;;;9.60;99.90;;;;;;5057060;28;20367;-60
2024/01/04 01:17:20;;;;;;;8.55;2.35;;;9.70;99.90;;;;;;5058982;28;20112;-60
2024/01/04 01:19:46;;;;;;;7.60;2.13;;;9.70;99.90;;;;;;5058887;28;20029;-60
2024/01/04 01:22:12;;;;;;;7.28;1.75;;;9.70;99.90;;;;;;5026010;28;20028;-60
2024/01/04 01:24:39;;;;;;;7.32;1.95;;;9.80;99.90;;;;;;5059576;28;20048;-60
2024/01/04 01:27:05;;;;;;;8.07;2.20;;;9.80;99.90;;;;;;5042333;28;20037;-60
2024/01/04 01:29:30;;;;;;;9.10;2.03;;;9.80;99.90;;;;;;5041929;28;20103;-59
2024/01/04 01:31:56;;;;;;;8.77;2.15;;;9.80;99.90;;;;;;5059510;28;20086;-60
2024/01/04 01:34:22;;;;;;;6.93;2.13;;;9.90;99.90;;;;;;5059374;28;20044;-59
2024/01/04 01:36:48;;;;;;;9.52;2.50;;;9.80;99.90;;;;;;5059342;28;20056;-60
2024/01/04 01:39:13;;;;;;;6.90;2.25;;;9.70;99.90;;;;;;5059439;28;20308;-60
2024/01/04 01:41:39;;;;;;;10.25;2.15;;;9.80;99.90;;;;;;5059236;28;20037;-60
2024/01/04 01:44:05;;;;;;;6.90;2.13;;;9.80;99.90;;;;;;5058327;28;20033;-59
2024/01/04 01:46:31;;;;;;;10.10;2.72;;;9.80;99.90;;;;;;5059203;28;20090;-60
2024/01/04 01:48:57;;;;;;;7.70;2.13;;;9.80;99.90;;;;;;5058447;28;20056;-59
2024/01/04 01:51:22;;;;;;;8.48;2.60;;;9.70;99.90;;;;;;5025210;28;20120;-60
2024/01/04 01:53:48;;;;;;;11.70;3.15;;;9.70;99.90;;;;;;5059023;28;20434;-60
2024/01/04 01:56:14;;;;;;;7.22;2.42;;;9.80;99.90;;;;;;5059055;28;20091;-60
2024/01/04 01:58:41;;;;;;;13.43;2.75;;;9.80;99.90;;;;;;5058919;28;20051;-60
2024/01/04 02:01:06;;;;;;;7.70;2.65;;;9.80;99.90;;;;;;5058095;28;20053;-60
2024/01/04 02:03:32;;;;;;;7.97;2.60;;;9.70;99.90;;;;;;5058090;28;20087;-60
2024/01/04 02:05:58;;;;;;;7.20;2.38;;;9.60;99.90;;;;;;5058924;28;20035;-60
2024/01/04 02:08:24;;;;;;;7.03;2.65;;;9.70;99.90;;;;;;5041396;28;20029;-60
2024/01/04 02:10:50;;;;;;;7.40;2.53;;;9.80;99.90;;;;;;5058791;28;20029;-61
2024/01/04 02:13:16;;;;;;;8.02;2.17;;;9.90;99.90;;;;;;5057862;28;20041;-61
2024/01/04 02:15:42;;;;;;;6.63;2.30;;;9.60;99.90;;;;;;5058682;28;20029;-59
2024/01/04 02:18:08;;;;;;;6.07;2.30;;;9.60;99.90;;;;;;5057765;28;20121;-59
2024/01/04 02:20:34;;;;;;;4.05;1.80;;;9.60;99.90;;;;;;5041109;28;20428;-61
2024/01/04 02:22:59;;;;;;;6.35;2.90;;;9.50;99.90;;;;;;5057523;28;20037;-60
2024/01/04 02:25:26;;;;;;;6.35;2.47;;;9.40;99.90;;;;;;5058470;28;20032;-59
2024/01/04 02:27:52;;;;;;;6.88;2.60;;;9.30;99.90;;;;;;5056869;28;20033;-59
2024/01/04 02:30:18;;;;;;;6.50;2.53;;;9.30;99.90;;;;;;5057522;28;20059;-60
2024/01/04 02:32:45;;;;;;;6.72;2.40;;;9.20;99.90;;;;;;5057650;28;20108;-60
2024/01/04 02:35:11;;;;;;;4.97;2.22;;;9.20;99.90;;;;;;5057427;28;20033;-60
2024/01/04 02:37:36;;;;;;;5.43;1.90;;;9.20;99.90;;;;;;5057556;28;20043;-60
2024/01/04 02:40:03;;;;;;;7.93;1.65;;;9.20;99.90;;;;;;5057455;28;20127;-61
2024/01/04 02:42:30;;;;;;;2.65;1.20;;;9.10;99.90;;;;;;5040990;28;20036;-61
2024/01/04 02:44:56;;;;;;;3.38;1.23;;;9.20;99.90;;;;;;5057265;28;20055;-60
2024/01/04 02:47:22;;;;;;;2.17;0.80;;;9.20;99.90;;;;;;5057383;28;20116;-61
2024/01/04 02:49:47;;;;;;;2.60;0.88;;;9.00;99.90;;;;;;5057271;28;20416;-60
2024/01/04 02:52:13;;;;;;;3.40;0.80;;;9.00;99.90;;;;;;5058079;28;20396;-60
2024/01/04 02:54:40;;;;;;;3.53;0.70;;;9.00;99.90;;;;;;5058102;28;20116;-60
2024/01/04 02:57:06;;;;;;;1.75;0.90;;;8.90;99.90;;;;;;5057925;28;20344;-60
2024/01/04 02:59:31;;;;;;;1.13;0.63;;;8.80;99.90;;;;;;5040535;28;20458;-60
2024/01/04 03:01:57;;;;;;;3.10;0.90;;;8.80;99.90;;;;;;5057058;28;20029;-61
2024/01/04 03:04:23;;;;;;;3.22;1.30;;;8.90;99.90;;;;;;5040466;28;20412;-61
2024/01/04 03:06:49;;;;;;;2.10;1.40;;;8.90;99.90;;;;;;5057859;28;20423;-60
2024/01/04 03:09:15;;;;;;;3.60;2.30;;;8.80;99.90;;;;;;5056992;28;20041;-61
2024/01/04 03:11:41;;;;;;;6.78;2.67;;;8.80;99.90;;;;;;5057671;28;20297;-61
2024/01/04 03:14:06;;;;;;;5.68;2.60;;;8.80;99.90;;;;;;5056862;28;20041;-61
2024/01/04 03:16:33;;;;;;;9.05;3.10;;;8.80;99.90;;;;;;5040337;28;20037;-61
2024/01/04 03:18:59;;;;;;;6.15;2.80;;;9.00;99.90;;;;;;5056771;28;20029;-61
2024/01/04 03:21:25;;;;;;;4.90;3.15;;;9.00;99.90;;;;;;5040180;28;20094;-61
2024/01/04 03:23:52;;;;;;;7.40;3.10;;;8.90;99.90;;;;;;5057232;28;20044;-61
2024/01/04 03:26:17;;;;;;;9.90;2.83;;;8.90;99.90;;;;;;5057414;28;20389;-61
2024/01/04 03:28:43;;;;;;;5.03;2.00;;;8.90;99.90;;;;;;5057339;28;20110;-60
2024/01/04 03:31:09;;;;;;;2.63;2.25;;;8.80;99.90;;;;;;5057014;28;20126;-59
2024/01/04 03:33:35;;;;;;;5.15;2.10;;;8.80;99.90;;;;;;5056313;28;20048;-60
2024/01/04 03:36:00;;;;;;;5.88;2.00;;;8.70;99.90;;;;;;5040207;28;20299;-62
2024/01/04 03:38:26;;;;;;;5.25;2.55;;;8.80;99.90;;;;;;5056914;28;20147;-60
2024/01/04 03:40:52;;;;;;;4.85;2.50;;;8.80;99.90;;;;;;5057055;28;20067;-60
2024/01/04 03:43:18;;;;;;;5.13;2.58;;;8.80;99.90;;;;;;5056956;28;20060;-60
2024/01/04 03:45:44;;;;;;;6.82;2.55;;;8.80;99.90;;;;;;5039665;28;20290;-61
2024/01/04 03:48:10;;;;;;;6.03;2.80;;;8.90;99.90;;;;;;5056876;28;20025;-59
2024/01/04 03:50:36;;;;;;;4.53;2.65;;;8.80;99.90;;;;;;5056136;28;20025;-60
2024/01/04 03:53:02;;;;;;;5.63;2.67;;;8.70;99.90;;;;;;5056824;28;20083;-59
2024/01/04 03:55:27;;;;;;;6.38;3.00;;;8.70;99.90;;;;;;5056151;28;20430;-59
2024/01/04 03:57:53;;;;;;;9.95;2.83;;;8.60;99.90;;;;;;5056789;28;20116;-59
2024/01/04 04:00:19;;;;;;;8.88;2.65;;;8.60;99.90;;;;;;5056055;28;20118;-60
2024/01/04 04:02:45;;;;;;;7.50;3.10;;;8.50;99.90;;;;;;5056755;28;20118;-60
2024/01/04 04:05:11;;;;;;;7.18;2.40;;;8.60;99.90;;;;;;5056600;28;20265;-60
2024/01/04 04:07:36;;;;;;;6.95;2.15;;;8.70;99.90;;;;;;5056916;28;20045;-60
2024/01/04 04:10:02;;;;;;;3.60;1.92;;;8.80;99.90;;;;;;5056526;28;20091;-61
2024/01/04 04:12:28;;;;;;;8.93;2.38;;;8.80;99.90;;;;;;5056639;28;20332;-59
2024/01/04 04:14:54;;;;;;;8.35;2.03;;;8.90;99.90;;;;;;5056803;28;20102;-60
2024/01/04 04:17:24;;;;;;;9.35;2.33;;;8.90;99.90;;;;;;5056613;28;20091;-60
2024/01/04 04:19:50;;;;;;;4.57;1.33;;;8.90;99.90;;;;;;5055822;28;20029;-59
2024/01/04 04:22:16;;;;;;;6.00;1.42;;;9.00;99.90;;;;;;5039269;28;20052;-59
2024/01/04 04:24:42;;;;;;;5.57;1.65;;;9.00;99.90;;;;;;5056523;28;20401;-59
2024/01/04 04:27:08;;;;;;;8.48;1.50;;;9.10;99.90;;;;;;5056557;28;20055;-59
2024/01/04 04:29:33;;;;;;;8.23;1.55;;;9.10;99.90;;;;;;5056164;28;20056;-59
2024/01/04 04:31:59;;;;;;;5.25;1.23;;;9.00;99.90;;;;;;5056470;28;20037;-59
2024/01/04 04:34:25;;;;;;;5.53;1.23;;;8.90;99.90;;;;;;5056422;28;20043;-60
2024/01/04 04:36:51;;;;;;;8.13;1.30;;;9.00;99.90;;;;;;5055812;28;20040;-60
2024/01/04 04:39:16;;;;;;;6.50;1.10;;;9.00;99.90;;;;;;5056325;28;20376;-60
2024/01/04 04:41:42;;;;;;;5.10;1.20;;;9.00;99.90;;;;;;5056329;28;20191;-60
2024/01/04 04:44:08;;;;;;;6.28;1.38;;;9.10;99.90;;;;;;5056314;28;20434;-60
2024/01/04 04:46:34;;;;;;;10.25;1.33;;;9.10;99.90;;;;;;5055524;28;20036;-62
2024/01/04 04:48:59;;;;;;;8.75;1.52;;;9.20;99.90;;;;;;5056242;28;20029;-60
2024/01/04 04:51:25;;;;;;;7.00;1.05;;;9.20;99.90;;;;;;5059726;28;20135;-60
2024/01/04 04:53:51;;;;;;;8.25;1.30;;;9.30;99.90;;;;;;5060385;28;20065;-60
2024/01/04 04:56:17;;;;;;;3.58;1.25;;;9.30;99.90;;;;;;5060060;28;20120;-60
2024/01/04 04:58:43;;;;;;;3.13;0.95;;;9.30;99.90;;;;;;5059953;28;20044;-59
2024/01/04 05:01:09;;;;;;;8.85;1.50;;;9.20;99.90;;;;;;5059927;28;20033;-60
2024/01/04 05:03:38;;;;;;;5.93;1.20;;;9.30;99.90;;;;;;5059886;28;20036;-61
2024/01/04 05:06:07;;;;;;;7.60;1.30;;;9.30;99.90;;;;;;5059865;28;20331;-61
2024/01/04 05:08:32;;;;;;;5.85;1.08;;;9.30;99.90;;;;;;5059073;28;20021;-61
2024/01/04 05:10:58;;;;;;;6.43;1.33;;;9.20;99.90;;;;;;5059765;28;20044;-61
2024/01/04 05:13:24;;;;;;;7.95;1.35;;;9.20;99.90;;;;;;5059100;28;20465;-61
2024/01/04 05:15:50;;;;;;;8.98;2.17;;;9.20;99.90;;;;;;5058890;28;20041;-62
2024/01/04 05:18:15;;;;;;;3.80;1.73;;;9.20;99.90;;;;;;5058915;28;20033;-60
2024/01/04 05:20:41;;;;;;;6.72;1.77;;;9.30;99.90;;;;;;5058914;28;20419;-62
2024/01/04 05:23:07;;;;;;;11.13;1.70;;;9.20;99.90;;;;;;5059421;28;20029;-60
2024/01/04 05:25:33;;;;;;;8.70;2.08;;;9.20;99.90;;;;;;5059457;28;20029;-60
2024/01/04 05:27:59;;;;;;;10.50;1.70;;;9.20;99.90;;;;;;5058648;28;20025;-61
2024/01/04 05:30:25;;;;;;;4.85;1.52;;;9.20;99.90;;;;;;5059261;28;20056;-60
2024/01/04 05:32:51;;;;;;;6.03;1.85;;;9.20;99.90;;;;;;5059333;28;20110;-60
2024/01/04 05:35:17;;;;;;;7.93;2.10;;;9.20;99.90;;;;;;5058594;28;20025;-60
2024/01/04 05:37:43;;;;;;;7.85;2.05;;;9.10;99.90;;;;;;5058430;28;20133;-61
2024/01/04 05:40:09;;;;;;;8.50;1.98;;;9.10;99.90;;;;;;5059273;28;20055;-60
2024/01/04 05:42:35;;;;;;;5.13;1.42;;;9.20;99.90;;;;;;5058346;28;20068;-60
2024/01/04 05:45:04;;;;;;;7.15;1.98;;;9.20;99.90;;;;;;5041953;28;20035;-60
2024/01/04 05:47:29;;;;;;;6.60;1.77;;;9.20;99.90;;;;;;5059048;28;20037;-61
2024/01/04 05:49:55;;;;;;;5.45;1.75;;;9.20;99.90;;;;;;5059023;28;20443;-60
2024/01/04 05:52:21;;;;;;;9.32;2.08;;;9.20;99.90;;;;;;5058967;28;20033;-60
2024/01/04 05:54:47;;;;;;;3.80;1.55;;;9.30;99.90;;;;;;5058356;28;20405;-61
2024/01/04 05:57:12;;;;;;;5.85;1.45;;;9.30;99.90;;;;;;5058859;28;20535;-62
2024/01/04 05:59:38;;;;;;;8.98;1.73;;;9.20;99.90;;;;;;5058750;28;20414;-60
2024/01/04 06:02:04;;;;;;;4.30;1.55;;;9.20;99.90;;;;;;5058520;28;20033;-60
2024/01/04 06:04:30;;;;;;;6.82;1.90;;;9.10;99.90;;;;;;5058694;28;20029;-60
2024/01/04 06:06:55;;;;;;;8.38;1.73;;;9.10;99.90;;;;;;5057833;28;20037;-60
2024/01/04 06:09:21;;;;;;;5.85;1.58;;;9.20;99.90;;;;;;5057855;28;20416;-60
2024/01/04 06:11:48;;;;;;;8.15;2.17;;;9.20;99.90;;;;;;5058583;28;20166;-61
2024/01/04 06:14:13;;;;;;;7.57;1.75;;;9.20;99.90;;;;;;5057776;28;20127;-61
2024/01/04 06:16:40;;;;;;;10.50;1.90;;;9.20;99.90;;;;;;5058420;28;20420;-61
2024/01/04 06:19:05;;;;;;;4.47;1.58;;;9.20;99.90;;;;;;5057566;28;20033;-63
2024/01/04 06:21:31;;;;;;;6.93;2.05;;;9.10;99.90;;;;;;5057673;28;20037;-61
2024/01/04 06:23:58;;;;;;;5.10;1.70;;;9.00;99.90;;;;;;5057324;28;20137;-61
2024/01/04 06:26:24;;;;;;;4.68;2.00;;;9.10;99.90;;;;;;5058030;28;20068;-61
2024/01/04 06:28:50;;;;;;;5.90;1.83;;;9.10;99.90;;;;;;5058282;28;20025;-60
2024/01/04 06:31:16;;;;;;;7.32;2.10;;;9.20;99.90;;;;;;5058220;28;20451;-61
2024/01/04 06:33:42;;;;;;;5.50;1.70;;;9.30;99.90;;;;;;5057804;28;20076;-61
2024/01/04 06:36:08;;;;;;;5.35;2.20;;;9.20;99.90;;;;;;5058211;28;20274;-62
2024/01/04 06:38:37;;;;;;;11.80;2.22;;;9.10;99.90;;;;;;5058203;28;20056;-61
2024/01/04 06:41:03;;;;;;;6.60;2.45;;;9.10;99.90;;;;;;5057451;28;20033;-60
2024/01/04 06:43:30;;;;;;;5.20;2.03;;;9.00;99.90;;;;;;5058245;28;20299;-60
2024/01/04 06:45:59;;;;;;;9.80;1.73;;;9.10;99.90;;;;;;5058311;28;20055;-61
2024/01/04 06:48:25;;;;;;;5.28;1.90;;;9.10;99.90;;;;;;5057307;28;20053;-61
2024/01/04 06:50:51;;;;;;;11.07;2.33;;;9.00;99.90;;;;;;5057892;28;20035;-59
2024/01/04 06:53:17;;;;;;;10.60;1.95;;;9.10;99.90;;;;;;5057877;28;20033;-59
2024/01/04 06:55:46;;;;;;;5.53;1.63;;;9.10;99.90;;;;;;5057863;28;20072;-60
2024/01/04 06:58:11;;;;;;;9.13;2.38;;;9.20;99.90;;;;;;5040853;28;20037;-60
2024/01/04 07:00:37;;;;;;;6.28;1.63;;;9.20;99.90;;;;;;5057854;28;20355;-60
2024/01/04 07:03:03;;;;;;;5.85;1.52;;;9.40;99.90;;;;;;5057708;28;20075;-61
2024/01/04 07:05:30;;;;;;;6.70;1.92;;;9.30;99.90;;;;;;5056979;28;20156;-59
2024/01/04 07:07:56;;;;;;;6.30;1.60;;;9.30;99.90;;;;;;5056819;28;20115;-59
2024/01/04 07:10:22;;;;;;;9.85;3.25;;;9.40;99.90;;;;;;5057627;28;20024;-62
2024/01/04 07:12:48;;;;;;;7.00;2.20;;;9.30;99.90;;;;;;5057093;28;20033;-60
2024/01/04 07:15:14;;;;;;;10.95;2.20;;;9.40;99.90;;;;;;5057302;28;20091;-60
2024/01/04 07:17:40;;;;;;;7.68;2.58;;;9.40;99.90;;;;;;5057152;28;20408;-60
2024/01/04 07:20:07;;;;;;;9.05;2.90;;;9.20;99.90;;;;;;5056534;28;20043;-61
2024/01/04 07:22:33;;;;;;;8.80;3.13;;;9.10;99.90;;;;;;5040061;28;20071;-60
2024/01/04 07:24:59;;;;;;;9.90;2.92;;;9.20;99.90;;;;;;5056644;28;20041;-60
2024/01/04 07:27:27;;;;;;;8.07;3.70;;;9.20;99.90;;;;;;5056487;28;20403;-60
2024/01/04 07:29:55;;;;;;;9.43;3.55;;;9.20;99.90;;;;;;5057161;28;20056;-59
2024/01/04 07:32:21;;;;;;;8.48;4.35;;;9.20;99.90;;;;;;5057199;28;20031;-59
2024/01/04 07:34:47;;;;;;;15.43;4.78;;;9.20;99.90;;;;;;5056496;28;20025;-60
2024/01/04 07:37:13;;;;;;;14.77;4.78;;;9.20;99.90;;;;;;5057148;28;20040;-60
2024/01/04 07:39:42;;;;;;;12.13;4.80;;;9.20;99.90;;;;;;5057009;28;20052;-60
2024/01/04 07:42:09;;;;;;;8.25;3.83;;;9.10;99.90;;;;;;5056988;28;20039;-60
2024/01/04 07:44:35;;;;;;;8.70;4.55;;;9.00;99.90;;;;;;5056106;28;20065;-61
2024/01/04 07:47:01;;;;;;;12.80;4.90;;;9.10;99.90;;;;;;5056287;28;20301;-64
2024/01/04 07:49:27;;;;;;;8.75;4.68;;;9.10;99.90;;;;;;5057020;28;20025;-65
2024/01/04 07:51:53;;;;;;;9.77;4.20;;;9.30;99.90;;;;;;5057107;28;20036;-64
2024/01/04 07:54:19;;;;;;;10.75;4.25;;;9.20;99.90;;;;;;5056915;28;20044;-63
2024/01/04 07:56:45;;;;;;;10.20;4.28;;;9.20;99.90;;;;;;5056937;28;20029;-64
2024/01/04 07:59:11;;;;;;;9.05;4.10;;;9.30;99.90;;;;;;5056782;28;20036;-63
2024/01/04 08:01:37;;;;;;;8.70;3.45;;;9.30;99.90;;;;;;5056693;28;20431;-65
2024/01/04 08:04:03;;;;;;;10.95;3.63;;;9.30;99.90;;;;;;5056412;28;20036;-67
2024/01/04 08:06:30;;;;;;;10.48;3.78;;;9.30;99.90;;;;;;5055784;28;20364;-64
2024/01/04 08:08:56;;;;;;;11.48;3.50;;;9.30;99.90;;;;;;5056586;28;20040;-66
2024/01/04 08:11:23;;;;;;;10.98;3.60;;;9.30;99.90;;;;;;5055846;28;20033;-66
2024/01/04 08:13:51;;;;;;;9.10;3.40;;;9.30;99.90;;;;;;5056285;28;20164;-66
2024/01/04 08:16:16;;;;;;;11.43;3.20;;;9.30;99.90;;;;;;5056543;28;20053;-65
2024/01/04 08:18:42;;;;;;;4.95;2.38;;;9.30;99.90;;;;;;5056255;28;20048;-62
2024/01/04 08:21:09;;;;;;;10.43;3.10;;;9.30;99.90;;;;;;5055888;28;20451;-61
2024/01/04 08:23:35;;;;;;;11.43;2.10;;;9.30;99.90;;;;;;5056486;28;20128;-64
2024/01/04 08:26:05;;;;;;;8.32;2.28;;;9.20;99.90;;;;;;5058667;28;20343;-62
2024/01/04 08:28:31;;;;;;;9.40;2.28;;;9.30;99.90;;;;;;5059756;28;20048;-64
2024/01/04 08:30:59;;;;;;;10.38;2.60;;;9.30;99.90;;;;;;5059657;28;20146;-63
2024/01/04 08:33:25;;;;;;;10.45;2.03;;;9.40;99.90;;;;;;5043709;28;20025;-61
2024/01/04 08:35:51;;;;;;;6.93;1.88;;;9.40;99.90;;;;;;5059787;28;20033;-60
2024/01/04 08:38:17;;;;;;;10.90;1.85;;;9.20;99.90;;;;;;5060540;28;20035;-62
2024/01/04 08:40:43;;;;;;;9.95;2.25;;;9.20;99.90;;;;;;5060631;28;20377;-61
2024/01/04 08:43:09;;;;;;;11.38;2.30;;;9.30;99.90;;;;;;5060359;28;20104;-64
2024/01/04 08:45:35;;;;;;;11.48;2.08;;;9.20;99.90;;;;;;5060584;28;20411;-61
2024/01/04 08:48:01;;;;;;;11.85;2.05;;;9.10;99.90;;;;;;5060345;28;20032;-61
2024/01/04 08:50:27;;;;;;;9.57;2.22;;;9.10;99.90;;;;;;5059554;28;20033;-65
2024/01/04 08:52:53;;;;;;;12.20;2.30;;;9.10;99.90;;;;;;5060364;28;20033;-67
2024/01/04 08:55:20;;;;;;;11.63;2.28;;;9.00;99.90;;;;;;5043097;28;20060;-62
2024/01/04 08:57:46;;;;;;;8.82;2.45;;;9.00;99.90;;;;;;5059494;28;20041;-62
2024/01/04 09:00:14;;;;;;;15.73;2.75;;;9.00;99.90;;;;;;5043138;28;20094;-63
2024/01/04 09:02:41;;;;;;;9.10;2.63;;;9.10;99.90;;;;;;5059377;28;20365;-62
2024/01/04 09:05:08;;;;;;;11.18;2.15;;;9.10;99.90;;;;;;5060126;28;20044;-61
2024/01/04 09:07:34;;;;;;;9.30;2.20;;;9.10;99.90;;;;;;5059954;28;20067;-59
2024/01/04 09:10:00;;;;;;;14.40;2.80;;;9.00;99.90;;;;;;5059965;28;20017;-60
2024/01/04 09:12:27;;;;;;;14.18;2.80;;;9.10;99.90;;;;;;5059897;28;20040;-61
2024/01/04 09:14:53;;;;;;;15.15;2.42;;;9.20;99.90;;;;;;5059202;28;20025;-63
2024/01/04 09:17:19;;;;;;;14.55;2.65;;;9.20;99.90;;;;;;5059143;28;20048;-58
2024/01/04 09:19:46;;;;;;;13.23;2.17;;;9.20;99.90;;;;;;5059998;28;20025;-63
2024/01/04 09:22:12;;;;;;;15.85;2.22;;;9.20;99.90;;;;;;5042296;28;20033;-61
2024/01/04 09:24:38;;;;;;;12.88;2.83;;;9.20;99.90;;;;;;5058906;28;20040;-62
2024/01/04 09:27:04;;;;;;;12.10;2.28;;;9.40;99.90;;;;;;5059652;28;20120;-62
2024/01/04 09:29:30;;;;;;;12.98;2.53;;;9.40;99.90;;;;;;5058654;28;20052;-61
2024/01/04 09:31:56;;;;;;;14.98;2.55;;;9.40;99.90;;;;;;5059625;28;20307;-62
2024/01/04 09:34:24;;;;;;;13.30;2.08;;;9.40;99.90;;;;;;5059772;28;20040;-62
2024/01/04 09:36:50;;;;;;;14.55;2.67;;;9.50;99.90;;;;;;5042094;28;20037;-63
2024/01/04 09:39:17;;;;;;;13.15;2.15;;;9.50;99.90;;;;;;5058680;28;20422;-62
2024/01/04 09:41:50;;;;;;;17.27;2.20;;;9.60;99.90;;;;;;5059464;28;20041;-65
2024/01/04 09:44:16;;;;;;;11.27;1.58;;;9.50;99.90;;;;;;5058565;28;20028;-61
2024/01/04 09:46:43;;;;;;;15.57;2.50;;;9.50;99.90;;;;;;5058524;28;20032;-62
2024/01/04 09:49:11;;;;;;;12.77;2.30;;;9.50;99.90;;;;;;5059177;28;20071;-62
2024/01/04 09:51:38;;;;;;;13.20;2.35;;;9.60;99.90;;;;;;5058216;28;20476;-62
2024/01/04 09:54:09;;;;;;;13.13;2.03;;;9.70;99.90;;;;;;5058302;28;20358;-63
2024/01/04 09:56:42;;;;;;;11.98;2.03;;;9.60;99.90;;;;;;5059030;28;20037;-62
2024/01/04 09:59:08;;;;;;;11.95;1.88;;;9.70;99.90;;;;;;5059275;28;20296;-62
2024/01/04 10:01:36;;;;;;;19.77;2.45;;;9.70;99.90;;;;;;5058914;28;20316;-63
2024/01/04 10:04:13;;;;;;;13.38;2.13;;;9.70;99.90;;;;;;5058966;28;20033;-60
2024/01/04 10:06:41;;;;;;;17.30;2.88;;;9.80;99.90;;;;;;5059143;28;20072;-62
2024/01/04 10:09:39;;;;;;;15.55;2.70;;;9.80;99.90;;;;;;5058823;28;20103;-61
2024/01/04 10:12:07;;;;;;;19.73;2.70;;;9.70;99.90;;;;;;5056749;28;20037;-63
2024/01/04 10:14:34;;;;;;;18.35;2.70;;;9.60;99.90;;;;;;5058640;28;20045;-60
2024/01/04 10:17:04;;;;;;;14.02;3.15;;;9.60;99.90;;;;;;5058716;28;20063;-63
2024/01/04 10:19:31;;;;;;;11.25;2.35;;;9.50;99.90;;;;;;5058552;28;20025;-60
2024/01/04 10:22:04;;;;;;;12.75;3.30;;;9.50;99.90;;;;;;5058844;28;20106;-66
2024/01/04 10:24:37;;;;;;;17.02;2.92;;;9.50;99.90;;;;;;5058443;28;20108;-63
2024/01/04 10:27:08;;;;;;;16.60;3.88;;;9.70;99.90;;;;;;5058481;28;20043;-60
2024/01/04 10:29:35;;;;;;;25.52;3.53;;;9.70;99.90;;;;;;5057852;28;20136;-64
2024/01/04 10:32:11;;;;;;;22.90;4.03;;;9.60;99.90;;;;;;5058386;28;20323;-63
2024/01/04 10:34:38;;;;;;;19.25;3.47;;;9.70;99.90;;;;;;5058437;28;20388;-63
2024/01/04 10:37:13;;;;;;;17.60;3.53;;;9.90;99.90;;;;;;5058225;28;20068;-61
2024/01/04 10:39:42;;;;;;;19.17;3.67;;;9.80;99.90;;;;;;5058254;28;20041;-64
2024/01/04 10:42:09;;;;;;;24.70;4.18;;;9.70;99.90;;;;;;5058226;28;20025;-61
2024/01/04 10:44:35;;;;;;;15.80;4.25;;;9.70;99.90;;;;;;5057398;28;20056;-65
2024/01/04 10:47:02;;;;;;;22.05;4.10;;;9.80;99.90;;;;;;5040331;28;20102;-60
2024/01/04 10:49:29;;;;;;;15.60;3.47;;;10.20;99.90;;;;;;5040679;28;20029;-64
2024/01/04 10:51:58;;;;;;;15.63;3.58;;;10.40;99.90;;;;;;5057390;28;20079;-64
2024/01/04 10:54:31;;;;;;;16.83;3.72;;;10.70;99.90;;;;;;5057988;28;20037;-62
2024/01/04 10:57:02;;;;;;;14.57;3.67;;;10.80;99.90;;;;;;5057825;28;20086;-62
2024/01/04 10:59:29;;;;;;;13.70;3.33;;;10.70;99.90;;;;;;5057910;28;20119;-61
2024/01/04 11:01:59;;;;;;;19.10;3.35;;;10.40;99.90;;;;;;5057751;28;20115;-62
2024/01/04 11:04:26;;;;;;;13.85;3.05;;;10.40;99.90;;;;;;5056868;28;20628;-63
2024/01/04 11:06:52;;;;;;;16.10;3.67;;;10.30;99.90;;;;;;5057902;28;20049;-63
2024/01/04 11:09:19;;;;;;;16.42;3.20;;;10.40;99.90;;;;;;5057683;28;20021;-62
2024/01/04 11:11:47;;;;;;;13.75;3.03;;;10.10;99.90;;;;;;5056918;28;20033;-62
2024/01/04 11:14:13;;;;;;;19.05;3.83;;;10.10;99.90;;;;;;5056860;28;20025;-64
2024/01/04 11:16:41;;;;;;;20.63;3.38;;;10.00;99.90;;;;;;5056890;28;20424;-61
2024/01/04 11:19:13;;;;;;;13.35;2.92;;;10.00;99.90;;;;;;5057629;28;20301;-60
2024/01/04 11:21:49;;;;;;;14.50;3.53;;;10.00;99.90;;;;;;5056785;28;20029;-60
2024/01/04 11:24:33;;;;;;;12.52;4.05;;;9.90;99.90;;;;;;5057497;28;20056;-62
2024/01/04 11:27:00;;;;;;;11.18;3.35;;;9.90;99.90;;;;;;5057544;28;20040;-63
2024/01/04 11:29:27;;;;;;;10.93;3.40;;;10.10;99.90;;;;;;5056603;28;20044;-61
2024/01/04 11:31:59;;;;;;;12.55;3.20;;;10.40;99.90;;;;;;5057467;28;20029;-63
2024/01/04 11:34:25;;;;;;;18.20;4.68;;;10.60;99.90;;;;;;5057643;28;20029;-65
2024/01/04 11:36:54;;;;;;;15.82;3.65;;;10.60;99.90;;;;;;5056789;28;20400;-60
2024/01/04 11:39:27;;;;;;;14.85;3.65;;;10.70;99.90;;;;;;5057080;28;20053;-63
2024/01/04 11:41:56;;;;;;;15.95;3.72;;;10.30;99.90;;;;;;5057249;28;20036;-60
2024/01/04 11:44:22;;;;;;;14.50;3.85;;;10.30;99.90;;;;;;5056343;28;20036;-61
2024/01/04 11:46:56;;;;;;;16.88;3.17;;;10.40;99.90;;;;;;5056334;28;20308;-62
2024/01/04 11:49:23;;;;;;;16.77;3.55;;;10.70;99.90;;;;;;5057120;28;20339;-64
2024/01/04 11:51:50;;;;;;;13.40;3.13;;;11.00;99.90;;;;;;5056308;28;20029;-63
2024/01/04 11:54:20;;;;;;;11.98;3.20;;;11.10;99.90;;;;;;5039806;28;20132;-61
2024/01/04 11:56:47;;;;;;;14.73;2.92;;;11.20;99.90;;;;;;5040146;28;20029;-60
2024/01/04 11:59:15;;;;;;;10.60;2.63;;;11.20;99.90;;;;;;5056844;28;20033;-63
2024/01/04 12:01:42;;;;;;;16.65;2.72;;;11.20;99.90;;;;;;5056357;28;20408;-62
2024/01/04 12:04:16;;;;;;;12.25;2.67;;;11.40;99.90;;;;;;5039303;28;20029;-65
2024/01/04 12:06:43;;;;;;;12.68;2.33;;;11.30;99.90;;;;;;5056146;28;20285;-62
2024/01/04 12:09:10;;;;;;;15.05;2.78;;;11.60;99.90;;;;;;5039162;28;20025;-58
2024/01/04 12:11:39;;;;;;;15.00;2.17;;;11.30;99.90;;;;;;5055863;28;20063;-60
2024/01/04 12:14:08;;;;;;;12.45;2.28;;;11.00;99.90;;;;;;5056537;28;20038;-61
2024/01/04 12:16:34;;;;;;;17.90;2.47;;;10.90;99.90;;;;;;5055805;28;20082;-60
2024/01/04 12:19:01;;;;;;;13.05;2.13;;;11.10;99.90;;;;;;5039215;28;20037;-62
2024/01/04 12:21:27;;;;;;;16.40;2.17;;;11.00;99.90;;;;;;5055688;28;20041;-61
2024/01/04 12:23:54;;;;;;;15.30;2.28;;;10.90;99.90;;;;;;5055538;28;20028;-64
2024/01/04 12:26:24;;;;;;;14.63;2.10;;;10.90;99.90;;;;;;5055660;28;20033;-59
2024/01/04 12:28:52;;;;;;;11.05;2.03;;;10.90;99.90;;;;;;5056360;28;20094;-63
2024/01/04 12:31:19;;;;;;;9.50;2.00;;;10.80;99.90;;;;;;5023214;28;20400;-62
2024/01/04 12:33:50;;;;;;;15.27;2.30;;;10.70;99.90;;;;;;5055664;28;20047;-61
2024/01/04 12:36:23;;;;;;;12.80;2.17;;;10.80;99.90;;;;;;5055723;28;20339;-64
2024/01/04 12:38:54;;;;;;;11.40;2.13;;;10.90;99.90;;;;;;5055590;28;20055;-61
2024/01/04 12:41:28;;;;;;;12.55;2.00;;;11.10;99.90;;;;;;5055626;28;20121;-59
2024/01/04 12:43:56;;;;;;;10.68;1.83;;;11.20;99.90;;;;;;5055641;28;20041;-59
2024/01/04 12:46:22;;;;;;;9.57;1.88;;;11.10;99.90;;;;;;5056320;28;20025;-61
2024/01/04 12:48:48;;;;;;;11.05;2.00;;;11.00;99.90;;;;;;5056365;28;20033;-61